Flight Track Log - Related Links

Times and Time Zones

All times are in EDT time to prevent confusion due to time zone crossing. See the EJA312 flight status page for this flight to view local times or setup timezone preferences in your user account.

Time Position Orientation Groundspeed Altitude Reporting Facility
EDT Latitude Longitude Course Direction KTS MPH feet Rate Location/Type
Wed 05:37:58 PM 35.5989 -106.1036 258° West 164 189 7,900  Level Albuquerque Center
Wed 05:39:00 PM 35.5519 -106.1358 209° Southwest 206 237 10,700 3,677 Climbing Albuquerque Center
Wed 05:40:02 PM 35.5353 -106.2203 256° West 237 273 15,500 4,113 Climbing Albuquerque Center
Wed 05:41:04 PM 35.5311 -106.3219 267° West 247 284 19,200 3,339 Climbing Albuquerque Center
Wed 05:42:00 PM 35.5409 -106.7462 270° West  Level Estimated
Wed 05:42:06 PM 35.5283 -106.4069 268° West 251 289 22,400  Level Albuquerque Center
Wed 05:43:00 PM 35.5278 -106.8555 258° West  Level Estimated
Wed 05:43:08 PM 35.5256 -106.4964 268° West 260 299 24,500  Level Albuquerque Center
Wed 05:44:10 PM 35.5233 -106.6039 269° West 288 331 27,100 1,694 Climbing Albuquerque Center
Wed 05:45:12 PM 35.5200 -106.7072 268° West 302 348 28,000 435 Climbing Albuquerque Center
Wed 05:46:14 PM 35.5147 -106.8392 267° West 353 406 28,000 1,065 Level Albuquerque Center
Wed 05:47:16 PM 35.5103 -106.9675 268° West 374 430 30,200 2,613 Climbing Albuquerque Center
Wed 05:48:18 PM 35.5058 -107.0900 267° West 341 392 33,400 1,839 Climbing Albuquerque Center
Wed 05:49:20 PM 35.5028 -107.1883 268° West 323 372 34,000 290 Climbing Albuquerque Center
Wed 05:50:22 PM 35.5033 -107.3258 270° West 353 406 34,000 823 Level Albuquerque Center
Wed 05:51:24 PM 35.5011 -107.4486 269° West 370 426 35,700 968 Climbing Albuquerque Center
Wed 05:52:26 PM 35.4997 -107.5883 269° West 368 423 36,000 146 Climbing Albuquerque Center
Wed 05:53:27 PM 35.4986 -107.7136 269° West 377 434 36,000  Level Albuquerque Center
Wed 05:54:29 PM 35.4956 -107.8639 269° West 389 448 36,000  Level Albuquerque Center
Wed 05:55:31 PM 35.4936 -107.9892 269° West 387 445 36,000  Level Albuquerque Center
Wed 05:56:33 PM 35.4908 -108.1361 269° West 385 443 36,000  Level Albuquerque Center
Wed 05:57:35 PM 35.4897 -108.2631 269° West 387 445 36,000  Level Albuquerque Center
Wed 05:58:37 PM 35.4875 -108.3894 269° West 387 445 36,000  Level Albuquerque Center
Wed 05:59:39 PM 35.4836 -108.5378 268° West 388 447 36,000  Level Albuquerque Center
Wed 06:00:41 PM 35.4811 -108.6653 269° West 388 447 36,000  Level Albuquerque Center
Wed 06:01:42 PM 35.4786 -108.8144 269° West 390 449 36,000  Level Albuquerque Center
Wed 06:02:44 PM 35.4628 -108.9425 261° West 397 457 36,000  Level Albuquerque Center
Wed 06:03:46 PM 35.4383 -109.0658 256° West 392 451 36,000  Level Albuquerque Center
Wed 06:04:48 PM 35.4097 -109.2136 257° West 395 455 36,000  Level Albuquerque Center
Wed 06:05:50 PM 35.3850 -109.3375 256° West 393 452 36,000  Level Albuquerque Center
Wed 06:06:52 PM 35.3547 -109.4800 255° West 388 447 36,000  Level Albuquerque Center
Wed 06:07:53 PM 35.3294 -109.6003 256° West 382 440 36,000  Level Albuquerque Center
Wed 06:08:55 PM 35.3003 -109.7431 256° West 385 443 36,000  Level Albuquerque Center
Wed 06:09:57 PM 35.2775 -109.8664 257° West 388 447 36,000  Level Albuquerque Center
Wed 06:10:59 PM 35.2475 -110.0094 256° West 389 448 36,000  Level Albuquerque Center
Wed 06:12:01 PM 35.2219 -110.1300 255° West 385 443 36,000  Level Albuquerque Center
Wed 06:13:02 PM 35.1939 -110.2525 254° West 389 448 36,000  Level Albuquerque Center
Wed 06:14:04 PM 35.1622 -110.3939 255° West 388 447 36,000  Level Albuquerque Center
Wed 06:15:06 PM 35.1378 -110.5150 256° West 385 443 36,000  Level Albuquerque Center
Wed 06:16:08 PM 35.1064 -110.6564 255° West 385 443 36,000  Level Albuquerque Center
Wed 06:17:10 PM 35.0789 -110.7783 255° West 389 448 36,000  Level Albuquerque Center
Wed 06:18:11 PM 35.0542 -110.8989 256° West 390 449 36,000  Level Albuquerque Center
Wed 06:19:13 PM 35.0197 -111.0500 254° West 388 447 36,000  Level Albuquerque Center
Wed 06:20:15 PM 34.9942 -111.1850 257° West 404 465 36,000  Level Albuquerque Center
Wed 06:21:17 PM 34.9658 -111.3114 255° West 395 455 36,000  Level Albuquerque Center
Wed 06:22:19 PM 34.9378 -111.4383 255° West 390 449 36,000  Level Albuquerque Center
Wed 06:23:21 PM 34.9089 -111.5669 255° West 394 453 36,000  Level Albuquerque Center
Wed 06:24:22 PM 34.8806 -111.6953 255° West 395 455 36,000  Level Albuquerque Center
Wed 06:25:24 PM 34.8486 -111.8347 254° West 395 455 36,000  Level Albuquerque Center
Wed 06:26:26 PM 34.8200 -111.9631 255° West 394 453 36,000  Level Albuquerque Center
Wed 06:27:28 PM 34.7903 -112.0919 254° West 396 456 36,000  Level Albuquerque Center
Wed 06:28:30 PM 34.7558 -112.2453 255° West 394 453 36,000  Level Albuquerque Center
Wed 06:29:31 PM 34.7272 -112.3744 255° West 396 456 36,000  Level Albuquerque Center
Wed 06:30:33 PM 34.6986 -112.5039 255° West 397 457 36,000  Level Albuquerque Center
Wed 06:31:35 PM 34.6844 -112.6353 263° West 396 456 36,000  Level Albuquerque Center
Wed 06:32:37 PM 34.6689 -112.7667 262° West 395 455 36,000  Level Albuquerque Center
Wed 06:33:39 PM 34.6531 -112.8994 262° West 399 459 36,000  Level Albuquerque Center
Wed 06:34:40 PM 34.6342 -113.0325 260° West 399 459 36,000  Level Albuquerque Center
Wed 06:35:42 PM 34.6039 -113.1886 257° West 399 459 36,000  Level Albuquerque Center
Wed 06:36:44 PM 34.5803 -113.3206 258° West 400 460 36,000  Level Albuquerque Center
Wed 06:38:36 PM 34.5367 -113.5575 257° West 399 459 36,000  Level Los Angeles Center
Wed 06:39:38 PM 34.5133 -113.6883 258° West 399 459 36,000  Level Los Angeles Center
Wed 06:40:40 PM 34.4892 -113.8211 258° West 403 464 36,000  Level Los Angeles Center
Wed 06:41:42 PM 34.4606 -113.9744 257° West 401 461 36,000  Level Los Angeles Center
Wed 06:42:44 PM 34.4361 -114.1053 257° West 398 458 36,000  Level Los Angeles Center
Wed 06:43:47 PM 34.4111 -114.2369 257° West 402 463 36,000 -192 Level Los Angeles Center
Wed 06:44:49 PM 34.3864 -114.3697 257° West 404 465 35,600 -968 Descending Los Angeles Center
Wed 06:45:51 PM 34.3564 -114.5272 257° West 401 461 34,000 -1,500 Descending Los Angeles Center
Wed 06:46:53 PM 34.3319 -114.6583 257° West 400 460 32,500 -968 Descending Los Angeles Center
Wed 06:47:55 PM 34.3050 -114.7906 256° West 403 464 32,000 -242 Descending Los Angeles Center
Wed 06:48:57 PM 34.2792 -114.9244 257° West 408 470 32,000  Level Los Angeles Center
Wed 06:49:59 PM 34.2539 -115.0611 257° West 413 475 32,000  Level Los Angeles Center
Wed 06:51:01 PM 34.2269 -115.1981 257° West 418 481 32,000 -192 Level Los Angeles Center
Wed 06:52:04 PM 34.1939 -115.3614 256° West 418 481 31,600 -672 Descending Los Angeles Center
Wed 06:53:06 PM 34.1667 -115.4975 256° West 419 482 30,600 -774 Descending Los Angeles Center
Wed 06:54:08 PM 34.1386 -115.6364 256° West 423 487 30,000 -290 Descending Los Angeles Center
Wed 06:55:10 PM 34.1128 -115.7753 257° West 426 490 30,000 -387 Level Los Angeles Center
Wed 06:56:12 PM 34.0842 -115.9144 256° West 429 494 29,200 -1,597 Descending Los Angeles Center
Wed 06:57:14 PM 34.0506 -116.0761 256° West 420 483 26,700 -2,274 Descending Los Angeles Center
Wed 06:58:16 PM 34.0222 -116.2172 256° West 432 497 24,500 -1,839 Descending Los Angeles Center
Wed 06:59:18 PM 33.9936 -116.3567 256° West 430 495 22,900 -2,016 Descending Los Angeles Center
Wed 07:00:21 PM 33.9658 -116.4892 256° West 416 479 20,300 -2,448 Descending Los Angeles Center
Wed 07:01:23 PM 33.9381 -116.6183 256° West 404 465 17,800 -2,228 Descending Los Angeles Center
Wed 07:03:08 PM 33.8833 -116.8667 255° West 365 420 14,100 -1,474 Descending Southern California TRACON
Wed 07:04:14 PM 33.8667 -117.0000 261° West 368 423 13,600 -905 Descending Southern California TRACON
Wed 07:05:14 PM 33.8500 -117.1167 260° West 370 426 12,200 -1,450 Descending Southern California TRACON
Wed 07:06:14 PM 33.8333 -117.2333 260° West 360 414 10,700 -1,148 Descending Southern California TRACON
Wed 07:07:09 PM 33.8167 -117.3167 256° West 317 365 10,000 -835 Descending Southern California TRACON
Wed 07:08:09 PM 33.8000 -117.4167 259° West 287 330 9,100 -397 Descending Southern California TRACON
Wed 07:09:40 PM 33.7894 -117.5292 264° West 233 268 9,000 -353 Descending Los Angeles Center
Wed 07:10:42 PM 33.7800 -117.6028 261° West 224 258 8,200 -1,200 Descending Los Angeles Center
Wed 07:11:15 PM 33.7833 -117.6500 275° West 231 266 7,100 -1,548 Descending Southern California TRACON
Wed 07:12:15 PM 33.8333 -117.7000 320° Northwest 186 214 5,800 -1,300 Descending Southern California TRACON
Wed 07:13:15 PM 33.8500 -117.7667 287° West 184 212 4,500 -1,350 Descending Southern California TRACON
Wed 07:14:15 PM 33.8167 -117.7833 203° Southwest 185 213 3,100 -1,300 Descending Southern California TRACON
Wed 07:15:15 PM 33.7667 -117.8167 209° Southwest 183 211 1,900 -1,050 Descending Southern California TRACON
Wed 07:16:15 PM 33.7333 -117.8333 203° Southwest 145 167 1,000 -744 Descending Southern California TRACON
Wed 07:17:16 PM 33.7000 -117.8500 203° Southwest 113 130 400 -590 Descending Southern California TRACON
Wed 07:19:00 PM 33.6757 -117.8682 132° Southeast  Level Estimated
Wed 07:26:00 PM 33.6757 -117.8682 132° Southeast  Level Estimated
Wed 07:27:00 PM 33.6757 -117.8682 132° Southeast  Level Estimated

Login

Don't have an account? Register now (free) for customized features, flight alerts, and more!